Time;durP1;ratioP1;P1;durP2;ratioP2;P2;SDS_P1;SDS_P2;PMS_P1;PMS_P2;Temp;Humidity;BMP_temperature;BMP_pressure;BME280_temperature;BME280_humidity;BME280_pressure;Samples;Min_cycle;Max_cycle;Signal;HPM_P1;HPM_P2
2023/05/09 00:01:05;;;;;;;19.60;11.48;;;13.60;99.90;;;;;;5056026;28;20048;-74
2023/05/09 00:03:32;;;;;;;19.33;12.25;;;13.70;99.90;;;;;;5061860;28;20056;-74
2023/05/09 00:05:57;;;;;;;19.33;11.80;;;13.60;99.90;;;;;;5056011;28;20048;-73
2023/05/09 00:08:24;;;;;;;23.35;13.52;;;13.60;99.90;;;;;;5056104;28;20971;-73
2023/05/09 00:10:49;;;;;;;19.80;12.00;;;13.60;99.90;;;;;;5062042;28;20071;-73
2023/05/09 00:13:15;;;;;;;24.30;13.20;;;13.60;99.90;;;;;;5054965;28;20608;-74
2023/05/09 00:15:43;;;;;;;20.60;12.48;;;13.60;99.90;;;;;;5043745;28;20045;-75
2023/05/09 00:18:08;;;;;;;19.50;11.38;;;13.60;99.90;;;;;;5046510;28;20186;-75
2023/05/09 00:20:35;;;;;;;21.55;13.07;;;13.60;99.90;;;;;;5039935;28;20052;-74
2023/05/09 00:23:01;;;;;;;20.45;11.57;;;13.90;99.90;;;;;;5032280;28;20098;-73
2023/05/09 00:25:27;;;;;;;21.17;12.90;;;13.50;99.90;;;;;;5040660;28;20052;-74
2023/05/09 00:27:54;;;;;;;18.77;12.35;;;13.50;99.90;;;;;;5057868;28;20521;-75
2023/05/09 00:30:20;;;;;;;19.73;12.50;;;13.50;99.90;;;;;;5050278;28;20048;-74
2023/05/09 00:32:46;;;;;;;21.65;13.45;;;13.50;99.90;;;;;;5045143;28;20789;-74
2023/05/09 00:35:12;;;;;;;23.83;13.43;;;13.50;99.90;;;;;;5045767;28;20050;-75
2023/05/09 00:37:38;;;;;;;23.40;14.63;;;13.50;99.90;;;;;;5046597;28;20052;-75
2023/05/09 00:40:05;;;;;;;22.67;14.55;;;13.50;99.90;;;;;;5062245;28;20933;-75
2023/05/09 00:42:33;;;;;;;24.83;14.80;;;13.50;99.90;;;;;;5056564;28;20084;-73
2023/05/09 00:44:59;;;;;;;28.45;15.60;;;13.50;99.90;;;;;;5044129;28;20828;-74
2023/05/09 00:47:27;;;;;;;29.25;17.73;;;13.50;99.90;;;;;;5062623;28;20052;-74
2023/05/09 00:49:53;;;;;;;29.70;17.67;;;13.50;99.90;;;;;;5057281;28;20044;-73
2023/05/09 00:52:22;;;;;;;30.90;17.70;;;13.40;99.90;;;;;;5055450;28;20059;-74
2023/05/09 00:54:52;;;;;;;27.95;17.45;;;13.40;99.90;;;;;;5041983;28;20052;-76
2023/05/09 00:57:18;;;;;;;31.73;18.55;;;13.40;99.90;;;;;;5060851;28;20069;-74
2023/05/09 00:59:44;;;;;;;27.52;16.52;;;13.40;99.90;;;;;;5054807;28;20060;-74
2023/05/09 01:02:10;;;;;;;30.63;17.90;;;13.40;99.90;;;;;;5040784;28;20044;-75
2023/05/09 01:04:36;;;;;;;31.20;19.00;;;13.40;99.90;;;;;;5055372;28;22135;-77
2023/05/09 01:07:45;;;;;;;34.45;19.45;;;13.40;99.90;;;;;;5073805;28;20522;-75
2023/05/09 01:10:28;;;;;;;32.53;18.95;;;13.40;99.90;;;;;;5062557;28;20055;-75
2023/05/09 01:13:04;;;;;;;28.98;18.02;;;13.40;99.90;;;;;;5058388;28;20072;-74
2023/05/09 01:15:45;;;;;;;31.23;19.30;;;13.40;99.90;;;;;;5040940;28;20055;-72
2023/05/09 01:18:25;;;;;;;31.75;18.40;;;13.40;99.90;;;;;;5050065;28;20052;-73
2023/05/09 01:21:02;;;;;;;30.17;18.65;;;13.40;99.90;;;;;;5054389;28;20051;-74
2023/05/09 01:23:41;;;;;;;32.22;19.90;;;13.40;99.90;;;;;;5063515;28;20052;-74
2023/05/09 01:26:25;;;;;;;33.63;17.98;;;13.30;99.90;;;;;;5044108;28;20044;-74
2023/05/09 01:29:18;;;;;;;31.83;17.90;;;13.40;99.90;;;;;;5072093;28;20048;-76
2023/05/09 01:31:47;;;;;;;31.25;19.67;;;13.30;99.90;;;;;;5056584;28;20059;-73
2023/05/09 01:34:16;;;;;;;32.08;18.15;;;13.30;99.90;;;;;;5057264;28;20127;-75
2023/05/09 01:36:45;;;;;;;31.17;18.55;;;13.30;99.90;;;;;;5050237;28;20051;-74
2023/05/09 01:39:12;;;;;;;28.83;17.23;;;13.30;99.90;;;;;;5054648;28;20410;-75
2023/05/09 01:41:39;;;;;;;31.88;18.75;;;13.30;99.90;;;;;;5040490;28;20052;-75
2023/05/09 01:44:11;;;;;;;29.35;17.92;;;13.30;99.90;;;;;;5029013;28;20041;-75
2023/05/09 01:46:38;;;;;;;28.73;18.08;;;13.30;99.90;;;;;;5059983;28;20124;-75
2023/05/09 01:49:07;;;;;;;28.52;17.10;;;13.30;99.90;;;;;;5059825;28;20050;-75
2023/05/09 01:51:35;;;;;;;30.27;18.30;;;13.20;99.90;;;;;;5056486;28;20047;-73
2023/05/09 01:54:02;;;;;;;28.70;17.30;;;13.20;99.90;;;;;;5060328;28;20055;-74
2023/05/09 01:56:29;;;;;;;27.77;17.65;;;13.30;99.90;;;;;;5049285;28;20538;-73
2023/05/09 01:58:56;;;;;;;31.08;18.10;;;13.20;99.90;;;;;;5052632;28;20037;-76
2023/05/09 02:01:25;;;;;;;29.35;17.65;;;13.20;99.90;;;;;;5040077;28;20040;-74
2023/05/09 02:03:53;;;;;;;29.45;16.50;;;13.00;99.90;;;;;;5039289;28;20052;-74
2023/05/09 02:06:28;;;;;;;31.55;18.25;;;12.70;99.90;;;;;;5049282;28;20063;-75
2023/05/09 02:08:56;;;;;;;32.13;18.15;;;13.20;99.90;;;;;;5028776;28;20360;-75
2023/05/09 02:11:22;;;;;;;32.42;18.05;;;13.20;99.90;;;;;;5066952;28;20076;-74
2023/05/09 02:13:47;;;;;;;29.40;18.83;;;13.20;99.90;;;;;;5050024;28;20087;-75
2023/05/09 02:16:14;;;;;;;33.38;18.70;;;13.20;99.90;;;;;;5065892;28;20144;-74
2023/05/09 02:18:40;;;;;;;35.08;18.65;;;13.20;99.90;;;;;;5041448;28;20575;-75
2023/05/09 02:21:07;;;;;;;34.40;20.08;;;13.20;99.90;;;;;;5027813;28;20051;-74
2023/05/09 02:23:34;;;;;;;32.97;19.42;;;13.20;99.90;;;;;;5051801;28;20048;-74
2023/05/09 02:26:00;;;;;;;36.00;20.45;;;13.20;99.90;;;;;;5061626;28;20044;-76
2023/05/09 02:28:27;;;;;;;35.80;21.27;;;13.20;99.90;;;;;;5047323;28;20174;-73
2023/05/09 02:30:55;;;;;;;37.83;21.23;;;13.30;99.90;;;;;;5055685;28;20041;-74
2023/05/09 02:33:22;;;;;;;44.05;23.27;;;13.20;99.90;;;;;;5042309;28;20068;-75
2023/05/09 02:35:49;;;;;;;44.60;23.98;;;13.30;99.90;;;;;;5042889;28;20486;-76
2023/05/09 02:38:15;;;;;;;43.53;23.67;;;13.30;99.90;;;;;;5044719;28;20113;-77
2023/05/09 02:40:43;;;;;;;44.00;23.58;;;13.30;99.90;;;;;;5036798;28;20044;-75
2023/05/09 02:43:09;;;;;;;43.90;24.92;;;13.30;99.90;;;;;;5056281;28;20048;-75
2023/05/09 02:45:35;;;;;;;46.35;24.75;;;13.30;99.90;;;;;;5039718;28;20131;-76
2023/05/09 02:48:04;;;;;;;43.20;23.58;;;13.30;99.90;;;;;;5038754;28;20106;-75
2023/05/09 02:50:30;;;;;;;45.00;23.10;;;13.30;99.90;;;;;;5036362;28;20478;-73
2023/05/09 02:52:56;;;;;;;45.72;23.77;;;13.30;99.90;;;;;;5043067;28;20045;-74
2023/05/09 02:55:22;;;;;;;51.13;25.40;;;13.30;99.90;;;;;;5043398;28;20454;-74
2023/05/09 02:57:47;;;;;;;42.30;23.65;;;13.30;99.90;;;;;;5047324;28;20049;-75
2023/05/09 03:00:14;;;;;;;45.40;23.95;;;13.30;99.90;;;;;;5042563;28;20094;-76
2023/05/09 03:02:40;;;;;;;44.03;23.13;;;13.30;99.90;;;;;;5037507;28;20044;-75
2023/05/09 03:05:06;;;;;;;46.70;24.08;;;13.30;99.90;;;;;;5045360;28;20052;-74
2023/05/09 03:07:32;;;;;;;45.75;24.55;;;13.30;99.90;;;;;;5056545;28;20619;-73
2023/05/09 03:09:58;;;;;;;44.78;24.77;;;13.30;99.90;;;;;;5051442;28;20044;-74
2023/05/09 03:12:25;;;;;;;45.22;23.52;;;13.30;99.90;;;;;;5040433;28;20894;-74
2023/05/09 03:14:51;;;;;;;42.75;23.90;;;13.40;99.90;;;;;;5059070;28;20066;-75
2023/05/09 03:17:20;;;;;;;45.72;23.83;;;13.40;99.90;;;;;;5065827;28;20482;-74
2023/05/09 03:19:47;;;;;;;45.33;23.45;;;13.30;99.90;;;;;;5035133;28;21029;-75
2023/05/09 03:22:13;;;;;;;46.85;24.73;;;13.40;99.90;;;;;;5054848;28;20048;-75
2023/05/09 03:28:01;;;;;;;43.90;23.65;;;13.30;99.90;;;;;;5041188;22;20056;-74
2023/05/09 03:30:26;;;;;;;41.67;24.35;;;13.50;99.90;;;;;;5005844;28;20044;-74
2023/05/09 03:32:52;;;;;;;45.58;24.60;;;13.30;99.90;;;;;;5025566;28;20048;-73
2023/05/09 03:35:18;;;;;;;44.08;23.83;;;13.30;99.90;;;;;;5009341;28;20367;-74
2023/05/09 03:37:44;;;;;;;45.53;25.10;;;13.30;99.90;;;;;;5022705;28;20519;-75
2023/05/09 03:40:11;;;;;;;48.22;24.88;;;13.30;99.90;;;;;;5001954;28;20083;-74
2023/05/09 03:42:36;;;;;;;48.60;24.95;;;13.30;99.90;;;;;;5024204;28;20049;-73
2023/05/09 03:45:02;;;;;;;47.08;24.88;;;13.30;99.90;;;;;;5019848;28;20041;-75
2023/05/09 03:47:28;;;;;;;43.25;23.58;;;13.30;99.90;;;;;;5022740;28;20047;-73
2023/05/09 03:49:54;;;;;;;49.33;26.17;;;13.40;99.90;;;;;;5000079;28;20071;-74
2023/05/09 03:52:19;;;;;;;47.97;24.70;;;13.30;99.90;;;;;;5022052;28;20444;-73
2023/05/09 03:54:47;;;;;;;55.45;26.40;;;13.40;99.90;;;;;;5022702;28;20052;-74
2023/05/09 03:57:12;;;;;;;50.00;25.75;;;13.30;99.90;;;;;;5005062;28;20064;-75
2023/05/09 03:59:38;;;;;;;51.35;26.92;;;13.40;99.90;;;;;;5019760;28;20045;-75
2023/05/09 04:02:04;;;;;;;52.58;26.98;;;13.40;99.90;;;;;;5015916;28;20056;-74
2023/05/09 04:04:30;;;;;;;51.00;25.77;;;13.40;99.90;;;;;;5012640;28;20096;-74
2023/05/09 04:06:56;;;;;;;50.90;27.38;;;13.40;99.90;;;;;;5018756;28;20037;-75
2023/05/09 04:09:22;;;;;;;51.90;27.63;;;13.40;99.90;;;;;;5007372;28;20044;-74
2023/05/09 04:11:47;;;;;;;53.28;27.27;;;13.40;99.90;;;;;;5018224;28;20045;-74
2023/05/09 04:14:13;;;;;;;55.15;27.67;;;13.40;99.90;;;;;;5019490;28;20048;-72
2023/05/09 04:16:39;;;;;;;53.85;28.42;;;13.40;99.90;;;;;;5009331;28;20132;-75
2023/05/09 04:19:08;;;;;;;55.63;27.50;;;13.40;99.90;;;;;;5029268;28;20063;-72
2023/05/09 04:21:34;;;;;;;58.13;28.98;;;13.50;99.90;;;;;;5025662;28;20049;-74
2023/05/09 04:24:00;;;;;;;57.53;28.85;;;13.50;99.90;;;;;;5016739;28;20041;-74
2023/05/09 04:26:26;;;;;;;56.67;29.70;;;13.50;99.90;;;;;;5005274;28;20137;-75
2023/05/09 04:28:53;;;;;;;51.55;27.73;;;13.50;99.90;;;;;;5013131;28;20041;-74
2023/05/09 04:31:18;;;;;;;60.45;27.90;;;13.50;99.90;;;;;;5019866;28;20045;-74
2023/05/09 04:33:44;;;;;;;55.00;28.27;;;13.60;99.90;;;;;;5008788;28;20078;-73
2023/05/09 04:36:10;;;;;;;55.17;29.00;;;13.50;99.90;;;;;;5002496;28;20956;-74
2023/05/09 04:38:35;;;;;;;57.40;29.70;;;13.60;99.90;;;;;;5014883;28;20056;-76
2023/05/09 04:41:01;;;;;;;59.40;29.65;;;13.60;99.90;;;;;;5036744;28;20049;-74
2023/05/09 04:43:27;;;;;;;57.97;28.70;;;13.90;99.90;;;;;;5010370;28;20123;-75
2023/05/09 04:45:53;;;;;;;61.20;28.55;;;13.60;99.90;;;;;;5018346;28;20341;-74
2023/05/09 04:48:18;;;;;;;59.70;27.92;;;13.60;99.90;;;;;;5018684;28;20408;-75
2023/05/09 04:50:47;;;;;;;57.83;29.70;;;13.70;99.90;;;;;;5007584;28;20049;-74
2023/05/09 04:53:13;;;;;;;55.08;28.63;;;13.70;99.90;;;;;;4993615;28;20126;-75
2023/05/09 04:55:39;;;;;;;57.22;28.60;;;14.00;99.90;;;;;;5002937;28;20061;-74
2023/05/09 04:58:04;;;;;;;58.53;28.17;;;13.80;99.90;;;;;;5016355;28;20045;-74
2023/05/09 05:00:31;;;;;;;57.22;29.55;;;13.80;99.90;;;;;;5019059;28;20047;-73
2023/05/09 05:02:56;;;;;;;63.45;30.60;;;13.80;99.90;;;;;;5009959;28;20628;-74
2023/05/09 05:05:22;;;;;;;64.53;29.80;;;13.90;99.90;;;;;;4986851;28;20053;-74
2023/05/09 05:07:48;;;;;;;66.78;32.50;;;13.90;99.90;;;;;;5022169;28;20045;-74
2023/05/09 05:10:14;;;;;;;64.07;30.58;;;13.90;99.90;;;;;;5002874;28;20045;-73
2023/05/09 05:12:39;;;;;;;67.97;32.13;;;13.90;99.90;;;;;;5021404;28;20481;-73
2023/05/09 05:15:06;;;;;;;64.15;31.85;;;14.00;99.90;;;;;;5019625;28;20044;-75
2023/05/09 05:17:32;;;;;;;71.15;33.47;;;13.90;99.90;;;;;;5011919;28;20124;-74
2023/05/09 05:19:58;;;;;;;61.90;30.83;;;14.00;99.90;;;;;;5021235;28;20049;-74
2023/05/09 05:22:25;;;;;;;67.45;31.33;;;14.00;99.90;;;;;;5021629;28;20045;-76
2023/05/09 05:24:51;;;;;;;68.10;31.85;;;14.00;99.90;;;;;;5025032;28;20054;-74
2023/05/09 05:27:16;;;;;;;69.00;34.08;;;14.00;99.90;;;;;;5018418;28;20059;-74
2023/05/09 05:29:43;;;;;;;69.43;32.60;;;14.10;99.90;;;;;;5004435;28;20041;-74
2023/05/09 05:32:09;;;;;;;70.80;33.60;;;14.10;99.90;;;;;;5020434;28;20420;-74
2023/05/09 05:34:35;;;;;;;73.60;35.42;;;14.10;99.90;;;;;;5019270;28;20037;-74
2023/05/09 05:37:01;;;;;;;69.78;34.42;;;14.20;99.90;;;;;;5010353;28;20060;-74
2023/05/09 05:39:27;;;;;;;76.90;34.20;;;14.20;99.90;;;;;;5007201;28;20041;-74
2023/05/09 05:41:52;;;;;;;69.75;34.08;;;14.20;99.90;;;;;;5022046;28;20476;-74
2023/05/09 05:44:19;;;;;;;70.63;35.20;;;14.30;99.90;;;;;;5002048;28;20049;-75
2023/05/09 05:46:45;;;;;;;75.22;34.78;;;14.30;99.90;;;;;;5020144;28;20496;-75
2023/05/09 05:49:11;;;;;;;74.07;34.70;;;14.30;99.90;;;;;;5019626;28;20067;-74
2023/05/09 05:51:37;;;;;;;71.90;35.38;;;14.40;99.90;;;;;;5015351;28;20077;-74
2023/05/09 05:54:03;;;;;;;75.30;36.30;;;14.40;99.90;;;;;;4994368;28;20489;-75
2023/05/09 05:56:29;;;;;;;81.93;35.60;;;14.50;99.90;;;;;;5005302;28;20061;-75
2023/05/09 05:58:55;;;;;;;78.00;38.00;;;14.50;99.90;;;;;;5021360;28;20482;-74
2023/05/09 06:01:20;;;;;;;77.45;37.95;;;14.50;99.90;;;;;;5018329;28;20041;-73
2023/05/09 06:03:48;;;;;;;74.68;36.70;;;14.60;99.90;;;;;;5005038;28;20052;-74
2023/05/09 06:06:14;;;;;;;80.07;38.47;;;14.60;99.90;;;;;;5018855;28;20045;-74
2023/05/09 06:08:40;;;;;;;75.30;37.47;;;14.70;99.90;;;;;;5002618;28;20049;-73
2023/05/09 06:11:05;;;;;;;78.78;39.10;;;14.70;99.90;;;;;;5004464;28;20037;-75
2023/05/09 06:13:31;;;;;;;82.63;38.65;;;14.70;99.90;;;;;;5004307;28;20445;-74
2023/05/09 06:15:57;;;;;;;83.00;38.15;;;14.70;99.90;;;;;;5002259;28;20052;-73
2023/05/09 06:18:23;;;;;;;82.65;38.95;;;14.80;99.90;;;;;;5019042;28;20136;-72
2023/05/09 06:20:48;;;;;;;73.82;35.90;;;14.90;99.90;;;;;;5015834;28;20502;-75
2023/05/09 06:23:16;;;;;;;77.03;38.25;;;14.90;99.90;;;;;;5010001;28;20491;-74
2023/05/09 06:25:42;;;;;;;74.18;37.38;;;14.90;99.90;;;;;;5018712;28;20523;-75
2023/05/09 06:28:08;;;;;;;73.10;36.83;;;15.00;99.90;;;;;;5006629;28;20104;-75
2023/05/09 06:30:37;;;;;;;72.68;37.40;;;15.00;99.90;;;;;;5032222;28;20041;-76
2023/05/09 06:33:02;;;;;;;75.85;37.55;;;15.10;99.90;;;;;;5012470;28;20068;-75
2023/05/09 06:35:28;;;;;;;70.60;36.75;;;15.10;99.90;;;;;;5020227;28;20143;-76
2023/05/09 06:37:54;;;;;;;74.43;36.22;;;15.10;99.90;;;;;;4999651;28;20049;-73
2023/05/09 06:40:20;;;;;;;63.67;34.00;;;15.10;99.90;;;;;;5006551;28;20481;-73
2023/05/09 06:42:45;;;;;;;64.28;33.00;;;15.10;99.90;;;;;;5000635;28;20489;-74
2023/05/09 06:45:11;;;;;;;61.22;32.03;;;15.10;99.90;;;;;;5009861;28;20582;-72
2023/05/09 06:47:37;;;;;;;59.08;32.63;;;15.10;99.90;;;;;;5000031;28;20085;-73
2023/05/09 06:50:03;;;;;;;61.42;33.38;;;15.10;99.90;;;;;;5013967;28;20436;-75
2023/05/09 06:52:29;;;;;;;59.47;32.92;;;15.10;99.90;;;;;;5015524;28;20279;-74
2023/05/09 06:54:54;;;;;;;60.38;32.47;;;15.10;99.90;;;;;;5016138;28;20604;-73
2023/05/09 06:57:20;;;;;;;61.78;32.13;;;15.10;99.90;;;;;;5015741;28;20098;-74
2023/05/09 06:59:46;;;;;;;57.38;32.42;;;15.10;99.90;;;;;;5012502;28;20076;-74
2023/05/09 07:02:12;;;;;;;58.33;31.52;;;15.10;99.90;;;;;;5036480;28;20048;-74
2023/05/09 07:04:40;;;;;;;58.88;32.28;;;15.20;99.90;;;;;;5020367;28;20040;-75
2023/05/09 07:07:06;;;;;;;56.08;31.38;;;15.10;99.90;;;;;;5013636;28;20053;-74
2023/05/09 07:09:32;;;;;;;54.15;30.30;;;15.20;99.90;;;;;;4998488;28;20056;-74
2023/05/09 07:11:59;;;;;;;54.92;29.50;;;15.10;99.90;;;;;;5007994;28;20054;-75
2023/05/09 07:14:26;;;;;;;57.85;30.20;;;15.20;99.90;;;;;;5018619;28;20846;-75
2023/05/09 07:16:52;;;;;;;52.45;29.63;;;15.20;99.90;;;;;;5004131;28;20049;-74
2023/05/09 07:19:18;;;;;;;51.88;29.92;;;15.20;99.90;;;;;;5017549;28;20070;-74
2023/05/09 07:21:43;;;;;;;53.28;28.13;;;15.20;99.90;;;;;;4981397;28;20053;-73
2023/05/09 07:24:09;;;;;;;48.95;26.63;;;15.10;99.90;;;;;;5006666;28;20141;-72
2023/05/09 07:26:35;;;;;;;46.65;26.85;;;15.20;99.90;;;;;;5032296;28;20045;-73
2023/05/09 07:29:01;;;;;;;43.50;25.15;;;15.10;99.90;;;;;;5011771;28;20052;-74
2023/05/09 07:31:27;;;;;;;49.50;27.55;;;15.20;99.90;;;;;;5014229;28;20037;-73
2023/05/09 07:33:52;;;;;;;47.20;26.15;;;15.20;99.90;;;;;;5010615;28;20059;-75
2023/05/09 07:36:18;;;;;;;47.65;24.58;;;15.20;99.90;;;;;;5013945;28;20049;-76
2023/05/09 07:38:46;;;;;;;44.60;25.10;;;15.20;99.90;;;;;;5002027;28;20163;-76
2023/05/09 07:41:12;;;;;;;47.38;26.17;;;15.20;99.90;;;;;;4978975;28;20037;-76
2023/05/09 07:43:38;;;;;;;47.33;25.58;;;15.20;99.90;;;;;;4999719;28;20396;-77
2023/05/09 07:46:04;;;;;;;42.00;24.60;;;15.20;99.90;;;;;;5006600;28;20068;-76
2023/05/09 07:48:29;;;;;;;40.10;23.35;;;15.20;99.90;;;;;;4999626;28;20041;-74
2023/05/09 07:50:55;;;;;;;40.40;23.10;;;15.20;99.90;;;;;;5013583;28;20053;-75
2023/05/09 07:53:21;;;;;;;39.88;21.73;;;15.20;99.90;;;;;;4982622;28;20120;-74
2023/05/09 07:55:49;;;;;;;42.45;23.30;;;15.20;99.90;;;;;;5020599;28;20057;-75
2023/05/09 07:58:15;;;;;;;40.95;22.80;;;15.20;99.90;;;;;;5003011;28;20052;-75
2023/05/09 08:00:41;;;;;;;40.33;21.85;;;15.20;99.90;;;;;;5017770;28;20115;-75
2023/05/09 08:03:07;;;;;;;37.03;20.08;;;15.20;99.90;;;;;;5006644;28;20060;-74
2023/05/09 08:05:33;;;;;;;36.80;20.98;;;15.20;99.90;;;;;;5023358;28;20045;-74
2023/05/09 08:07:58;;;;;;;32.00;19.42;;;15.20;99.90;;;;;;5017606;28;20072;-74
2023/05/09 08:10:25;;;;;;;36.00;20.70;;;15.20;99.90;;;;;;5017355;28;20099;-74
2023/05/09 08:12:51;;;;;;;32.95;20.35;;;15.20;99.90;;;;;;5019371;28;20055;-75
2023/05/09 08:15:17;;;;;;;38.10;21.25;;;15.30;99.90;;;;;;5023578;28;20561;-74
2023/05/09 08:17:43;;;;;;;36.35;20.98;;;15.50;99.90;;;;;;5025107;28;20041;-74
2023/05/09 08:20:10;;;;;;;37.10;21.42;;;15.30;99.90;;;;;;5022456;28;20041;-75
2023/05/09 08:22:39;;;;;;;32.67;19.55;;;15.30;99.90;;;;;;5020223;28;20457;-77
2023/05/09 08:25:06;;;;;;;31.85;19.50;;;15.30;99.90;;;;;;5026607;28;20052;-75
2023/05/09 08:27:32;;;;;;;34.40;20.55;;;15.40;99.90;;;;;;5020275;28;20431;-75
2023/05/09 08:29:58;;;;;;;30.27;19.20;;;15.40;99.90;;;;;;5003695;28;20036;-76
2023/05/09 08:32:23;;;;;;;34.28;19.15;;;15.30;99.90;;;;;;5016101;28;20128;-75
2023/05/09 08:34:49;;;;;;;32.25;18.52;;;15.40;99.90;;;;;;5003943;28;20517;-75
2023/05/09 08:37:15;;;;;;;28.42;18.88;;;15.40;99.90;;;;;;5002020;28;20049;-76
2023/05/09 08:39:41;;;;;;;30.70;19.35;;;15.40;99.90;;;;;;5009932;28;20045;-75
2023/05/09 08:42:08;;;;;;;30.58;18.52;;;15.50;99.90;;;;;;5021452;28;20073;-75
2023/05/09 08:44:35;;;;;;;29.25;17.60;;;15.50;99.90;;;;;;5021648;28;20056;-75
2023/05/09 08:47:03;;;;;;;29.25;18.83;;;15.50;99.90;;;;;;5024674;28;20049;-75
2023/05/09 08:49:29;;;;;;;30.65;17.77;;;15.50;99.90;;;;;;5020390;28;20053;-75
2023/05/09 08:51:56;;;;;;;32.92;18.83;;;15.60;99.90;;;;;;5014676;28;20492;-76
2023/05/09 08:54:23;;;;;;;32.85;18.17;;;15.60;99.90;;;;;;4996877;28;20045;-76
2023/05/09 08:56:50;;;;;;;27.85;17.75;;;15.60;99.90;;;;;;5019267;28;20134;-75
2023/05/09 08:59:17;;;;;;;29.13;18.13;;;15.60;99.90;;;;;;5005142;28;20131;-77
2023/05/09 09:01:43;;;;;;;25.23;17.15;;;15.60;99.90;;;;;;5024271;28;20054;-75
2023/05/09 09:04:12;;;;;;;28.17;18.55;;;15.70;99.90;;;;;;5015313;28;20210;-77
2023/05/09 09:06:39;;;;;;;27.92;18.08;;;15.70;99.90;;;;;;4999270;28;20190;-76
2023/05/09 09:09:07;;;;;;;30.52;19.38;;;15.70;99.90;;;;;;4981501;28;20097;-76
2023/05/09 09:11:34;;;;;;;28.70;18.30;;;15.70;99.90;;;;;;5009593;28;20061;-75
2023/05/09 09:14:04;;;;;;;27.48;18.77;;;15.70;99.90;;;;;;5004551;28;20049;-76
2023/05/09 09:16:31;;;;;;;28.85;17.88;;;15.80;99.90;;;;;;5012061;28;20524;-76
2023/05/09 09:18:58;;;;;;;31.73;20.23;;;15.80;99.90;;;;;;5013456;28;20045;-76
2023/05/09 09:21:25;;;;;;;26.48;18.65;;;15.80;99.90;;;;;;4940903;28;20618;-76
2023/05/09 09:23:53;;;;;;;28.70;19.58;;;15.80;99.90;;;;;;5052392;28;20467;-75
2023/05/09 09:26:18;;;;;;;28.90;19.65;;;15.80;99.90;;;;;;5026088;28;20107;-76
2023/05/09 09:28:44;;;;;;;27.45;18.90;;;15.70;99.90;;;;;;5024230;28;20050;-75
2023/05/09 09:31:24;;;;;;;26.42;18.52;;;15.70;99.90;;;;;;5025615;28;20442;-77
2023/05/09 09:33:50;;;;;;;27.08;18.35;;;15.70;99.90;;;;;;5035104;28;20076;-77
2023/05/09 09:36:26;;;;;;;29.35;17.73;;;16.20;99.90;;;;;;5018315;28;20121;-76
2023/05/09 09:38:59;;;;;;;23.40;17.70;;;15.60;99.90;;;;;;5024870;28;20522;-76
2023/05/09 09:41:36;;;;;;;29.67;19.60;;;15.60;99.90;;;;;;5033123;28;20051;-76
2023/05/09 09:44:19;;;;;;;28.25;19.38;;;15.70;99.90;;;;;;5029450;28;20052;-76
2023/05/09 09:46:50;;;;;;;29.52;19.13;;;15.70;99.90;;;;;;5033147;28;20492;-76
2023/05/09 09:49:18;;;;;;;26.58;18.00;;;15.70;99.90;;;;;;5029493;28;20064;-75
2023/05/09 09:51:48;;;;;;;25.60;18.55;;;15.70;99.90;;;;;;5012751;28;20150;-76
2023/05/09 09:54:14;;;;;;;29.20;18.85;;;15.70;99.90;;;;;;5013436;28;20053;-76
2023/05/09 09:56:41;;;;;;;24.40;17.88;;;15.70;99.90;;;;;;5015576;28;20049;-76
2023/05/09 09:59:11;;;;;;;26.83;18.50;;;15.70;99.90;;;;;;5023034;28;20091;-77
2023/05/09 10:02:05;;;;;;;24.80;17.45;;;15.60;99.90;;;;;;5028811;28;20076;-77
2023/05/09 10:04:40;;;;;;;23.05;16.40;;;15.60;99.90;;;;;;5021871;28;20605;-77
2023/05/09 10:07:09;;;;;;;22.92;15.70;;;15.60;99.90;;;;;;5013080;28;20123;-77
2023/05/09 10:09:38;;;;;;;20.80;14.82;;;15.60;99.90;;;;;;5019669;28;20048;-78
2023/05/09 10:12:06;;;;;;;20.48;15.43;;;15.60;99.90;;;;;;5025087;28;20040;-75
2023/05/09 10:14:34;;;;;;;19.63;14.70;;;15.60;99.90;;;;;;5012644;28;20057;-76
2023/05/09 10:17:02;;;;;;;22.35;15.90;;;15.50;99.90;;;;;;5034012;28;20048;-77
2023/05/09 10:19:29;;;;;;;21.02;15.68;;;15.60;99.90;;;;;;5016944;28;20072;-77
2023/05/09 10:22:07;;;;;;;19.42;14.05;;;15.60;99.90;;;;;;5026531;28;20045;-77
2023/05/09 10:25:02;;;;;;;20.55;13.68;;;15.60;99.90;;;;;;5028896;28;20054;-75
2023/05/09 10:27:35;;;;;;;17.30;12.93;;;15.60;99.90;;;;;;5023446;28;20057;-78
2023/05/09 10:30:04;;;;;;;17.40;13.43;;;15.50;99.90;;;;;;5015285;28;20060;-75
2023/05/09 10:33:01;;;;;;;18.42;13.50;;;15.50;99.90;;;;;;5028472;28;20048;-76
2023/05/09 10:35:32;;;;;;;18.63;13.55;;;15.60;99.90;;;;;;5012517;28;20536;-75
2023/05/09 10:38:06;;;;;;;17.40;13.65;;;15.60;99.90;;;;;;5038282;28;20136;-76
2023/05/09 10:40:33;;;;;;;19.55;13.43;;;15.60;99.90;;;;;;5015185;28;20052;-77
2023/05/09 10:42:59;;;;;;;14.50;11.10;;;15.60;99.90;;;;;;5029299;28;20055;-77
2023/05/09 10:45:25;;;;;;;16.33;12.25;;;15.60;99.90;;;;;;5013196;28;20041;-75
2023/05/09 10:47:52;;;;;;;16.27;11.30;;;15.60;99.90;;;;;;5030659;28;20048;-75
2023/05/09 10:50:20;;;;;;;12.45;10.43;;;15.60;99.90;;;;;;5014550;28;20122;-77
2023/05/09 10:53:07;;;;;;;12.50;9.88;;;15.60;99.90;;;;;;5023418;28;20644;-78
2023/05/09 10:55:54;;;;;;;14.27;10.63;;;15.70;99.90;;;;;;5020291;28;20497;-75
2023/05/09 10:58:26;;;;;;;13.23;9.52;;;15.70;99.90;;;;;;5025480;28;20158;-77
2023/05/09 11:00:54;;;;;;;12.10;9.02;;;15.60;99.90;;;;;;5014369;28;20753;-78
2023/05/09 11:03:21;;;;;;;11.60;9.90;;;15.60;99.90;;;;;;5016092;28;20053;-75
2023/05/09 11:05:48;;;;;;;11.43;9.15;;;15.60;99.90;;;;;;5030216;28;20049;-78
2023/05/09 11:08:19;;;;;;;12.50;8.52;;;15.60;99.90;;;;;;5026924;28;20048;-77
2023/05/09 11:10:44;;;;;;;12.38;9.70;;;15.60;99.90;;;;;;5027573;28;20500;-76
2023/05/09 11:13:10;;;;;;;13.88;10.38;;;15.60;99.90;;;;;;5027057;28;20059;-76
2023/05/09 11:16:09;;;;;;;14.15;9.88;;;15.60;99.90;;;;;;5016427;28;20480;-76
2023/05/09 11:18:49;;;;;;;15.77;10.45;;;15.60;99.90;;;;;;5031878;28;20084;-78
2023/05/09 11:21:15;;;;;;;12.05;10.50;;;15.60;99.90;;;;;;5022232;28;20096;-76
2023/05/09 11:23:41;;;;;;;15.70;11.55;;;15.60;99.90;;;;;;5022438;28;20048;-77
2023/05/09 11:26:08;;;;;;;14.43;10.40;;;15.80;99.90;;;;;;5018697;28;20083;-76
2023/05/09 11:28:37;;;;;;;12.20;9.88;;;15.50;99.90;;;;;;5025296;28;20056;-78
2023/05/09 11:31:17;;;;;;;14.50;10.32;;;15.50;99.90;;;;;;5027676;28;20060;-77
2023/05/09 11:33:45;;;;;;;11.38;9.77;;;15.40;99.90;;;;;;5007870;28;20128;-76
2023/05/09 11:36:19;;;;;;;11.80;9.30;;;15.40;99.90;;;;;;5013557;28;20044;-77
2023/05/09 11:38:46;;;;;;;14.15;9.80;;;15.40;99.90;;;;;;5032567;28;20057;-76
2023/05/09 11:41:12;;;;;;;12.50;10.18;;;15.30;99.90;;;;;;5003197;28;20041;-76
2023/05/09 11:43:40;;;;;;;13.85;10.05;;;15.30;99.90;;;;;;5016549;28;20511;-76
2023/05/09 11:46:05;;;;;;;12.20;10.20;;;15.30;99.90;;;;;;5021901;28;20462;-79
2023/05/09 11:48:37;;;;;;;12.85;10.60;;;15.40;99.90;;;;;;5002570;28;20045;-76
2023/05/09 11:51:03;;;;;;;12.65;10.95;;;15.40;99.90;;;;;;5027016;28;20037;-76
2023/05/09 11:53:29;;;;;;;13.52;10.50;;;15.30;99.90;;;;;;5032091;28;20737;-76
2023/05/09 11:55:55;;;;;;;13.63;11.35;;;15.30;99.90;;;;;;5031916;28;20052;-76
2023/05/09 11:58:21;;;;;;;12.73;11.00;;;15.30;99.90;;;;;;5021602;28;20107;-76
2023/05/09 12:00:52;;;;;;;15.85;10.75;;;15.30;99.90;;;;;;5035161;28;20107;-76
2023/05/09 12:03:18;;;;;;;13.43;10.45;;;15.30;99.90;;;;;;5019553;28;20388;-79
2023/05/09 12:05:43;;;;;;;13.13;9.32;;;15.30;99.90;;;;;;5031686;28;20048;-78
2023/05/09 12:08:09;;;;;;;12.38;9.48;;;15.30;99.90;;;;;;5026802;28;20123;-76
2023/05/09 12:10:39;;;;;;;11.55;8.98;;;15.30;99.90;;;;;;5020131;28;20045;-79
2023/05/09 12:13:04;;;;;;;12.07;9.77;;;15.30;99.90;;;;;;5039871;28;20080;-78
2023/05/09 12:15:36;;;;;;;11.70;9.70;;;15.40;99.90;;;;;;5013305;28;20076;-75
2023/05/09 12:18:04;;;;;;;12.02;8.65;;;15.50;99.90;;;;;;5032332;28;20052;-76
2023/05/09 12:20:48;;;;;;;10.20;8.32;;;15.50;99.90;;;;;;5028078;28;20088;-79
2023/05/09 12:23:14;;;;;;;10.52;8.57;;;15.40;99.90;;;;;;5016864;28;20041;-76
2023/05/09 12:25:54;;;;;;;11.70;9.10;;;15.50;99.90;;;;;;5033768;28;20052;-76
2023/05/09 12:28:22;;;;;;;10.48;8.10;;;15.50;99.90;;;;;;5027054;28;20054;-76
2023/05/09 12:30:48;;;;;;;11.32;8.48;;;15.50;99.90;;;;;;5031431;28;20044;-78
2023/05/09 12:33:15;;;;;;;10.93;8.88;;;15.40;99.90;;;;;;5032947;28;20132;-76
2023/05/09 12:35:46;;;;;;;10.48;8.88;;;15.50;99.90;;;;;;5030916;28;20048;-76